sensor_id;sensor_type;location;lat;lon;timestamp;P1;durP1;ratioP1;P2;durP2;ratioP2
36575;SDS011;45700;50.930;5.168;2023-08-12T00:00:46;15.80;;;7.15;;
36575;SDS011;45700;50.930;5.168;2023-08-12T00:04:47;20.00;;;7.65;;
36575;SDS011;45700;50.930;5.168;2023-08-12T00:08:48;16.50;;;7.80;;
36575;SDS011;45700;50.930;5.168;2023-08-12T00:12:49;12.82;;;7.05;;
36575;SDS011;45700;50.930;5.168;2023-08-12T00:16:50;16.48;;;6.60;;
36575;SDS011;45700;50.930;5.168;2023-08-12T00:20:51;19.25;;;6.72;;
36575;SDS011;45700;50.930;5.168;2023-08-12T00:24:52;11.43;;;6.13;;
36575;SDS011;45700;50.930;5.168;2023-08-12T00:28:53;11.05;;;5.68;;
36575;SDS011;45700;50.930;5.168;2023-08-12T00:32:54;15.57;;;6.13;;
36575;SDS011;45700;50.930;5.168;2023-08-12T00:36:55;15.48;;;5.90;;
36575;SDS011;45700;50.930;5.168;2023-08-12T00:40:56;12.73;;;6.47;;
36575;SDS011;45700;50.930;5.168;2023-08-12T00:44:58;10.55;;;6.20;;
36575;SDS011;45700;50.930;5.168;2023-08-12T00:48:59;12.38;;;6.00;;
36575;SDS011;45700;50.930;5.168;2023-08-12T00:53:00;7.20;;;3.40;;
36575;SDS011;45700;50.930;5.168;2023-08-12T00:57:01;11.55;;;3.25;;
36575;SDS011;45700;50.930;5.168;2023-08-12T01:01:02;6.88;;;2.65;;
36575;SDS011;45700;50.930;5.168;2023-08-12T01:05:04;6.03;;;3.40;;
36575;SDS011;45700;50.930;5.168;2023-08-12T01:09:05;5.13;;;3.13;;
36575;SDS011;45700;50.930;5.168;2023-08-12T01:13:08;5.75;;;2.83;;
36575;SDS011;45700;50.930;5.168;2023-08-12T01:17:12;7.97;;;2.95;;
36575;SDS011;45700;50.930;5.168;2023-08-12T01:21:15;6.32;;;3.08;;
36575;SDS011;45700;50.930;5.168;2023-08-12T01:25:17;7.25;;;3.08;;
36575;SDS011;45700;50.930;5.168;2023-08-12T01:29:18;8.50;;;3.30;;
36575;SDS011;45700;50.930;5.168;2023-08-12T01:33:21;9.00;;;3.20;;
36575;SDS011;45700;50.930;5.168;2023-08-12T01:37:27;6.05;;;3.45;;
36575;SDS011;45700;50.930;5.168;2023-08-12T01:41:28;9.95;;;3.95;;
36575;SDS011;45700;50.930;5.168;2023-08-12T01:45:30;9.80;;;3.97;;
36575;SDS011;45700;50.930;5.168;2023-08-12T01:49:34;7.15;;;3.10;;
36575;SDS011;45700;50.930;5.168;2023-08-12T01:53:36;6.97;;;3.25;;
36575;SDS011;45700;50.930;5.168;2023-08-12T01:57:37;4.40;;;3.20;;
36575;SDS011;45700;50.930;5.168;2023-08-12T02:01:38;11.00;;;3.80;;
36575;SDS011;45700;50.930;5.168;2023-08-12T02:05:38;8.95;;;3.72;;
36575;SDS011;45700;50.930;5.168;2023-08-12T02:09:41;10.70;;;3.80;;
36575;SDS011;45700;50.930;5.168;2023-08-12T02:13:42;7.63;;;3.70;;
36575;SDS011;45700;50.930;5.168;2023-08-12T02:17:43;8.20;;;3.45;;
36575;SDS011;45700;50.930;5.168;2023-08-12T02:21:44;12.18;;;3.58;;
36575;SDS011;45700;50.930;5.168;2023-08-12T02:25:45;10.30;;;3.25;;
36575;SDS011;45700;50.930;5.168;2023-08-12T02:29:47;7.55;;;3.28;;
36575;SDS011;45700;50.930;5.168;2023-08-12T02:33:48;8.85;;;2.85;;
36575;SDS011;45700;50.930;5.168;2023-08-12T02:37:49;7.95;;;3.13;;
36575;SDS011;45700;50.930;5.168;2023-08-12T02:41:50;5.93;;;3.45;;
36575;SDS011;45700;50.930;5.168;2023-08-12T02:45:51;8.55;;;3.72;;
36575;SDS011;45700;50.930;5.168;2023-08-12T02:49:52;10.85;;;4.30;;
36575;SDS011;45700;50.930;5.168;2023-08-12T02:53:53;12.95;;;4.85;;
36575;SDS011;45700;50.930;5.168;2023-08-12T02:57:54;12.23;;;4.43;;
36575;SDS011;45700;50.930;5.168;2023-08-12T03:01:55;11.20;;;5.30;;
36575;SDS011;45700;50.930;5.168;2023-08-12T03:05:56;9.63;;;5.20;;
36575;SDS011;45700;50.930;5.168;2023-08-12T03:09:58;11.50;;;5.82;;
36575;SDS011;45700;50.930;5.168;2023-08-12T03:13:59;10.52;;;6.30;;
36575;SDS011;45700;50.930;5.168;2023-08-12T03:18:00;19.65;;;6.95;;
36575;SDS011;45700;50.930;5.168;2023-08-12T03:22:01;18.70;;;7.32;;
36575;SDS011;45700;50.930;5.168;2023-08-12T03:26:02;18.58;;;7.57;;
36575;SDS011;45700;50.930;5.168;2023-08-12T03:30:03;19.98;;;8.52;;
36575;SDS011;45700;50.930;5.168;2023-08-12T03:34:04;15.07;;;7.53;;
36575;SDS011;45700;50.930;5.168;2023-08-12T03:38:05;15.38;;;7.38;;
36575;SDS011;45700;50.930;5.168;2023-08-12T03:42:06;23.10;;;8.23;;
36575;SDS011;45700;50.930;5.168;2023-08-12T03:46:07;19.00;;;8.68;;
36575;SDS011;45700;50.930;5.168;2023-08-12T03:50:08;19.08;;;9.70;;
36575;SDS011;45700;50.930;5.168;2023-08-12T03:54:09;18.77;;;8.93;;
36575;SDS011;45700;50.930;5.168;2023-08-12T03:58:10;20.40;;;9.00;;
36575;SDS011;45700;50.930;5.168;2023-08-12T04:02:11;19.63;;;9.38;;
36575;SDS011;45700;50.930;5.168;2023-08-12T04:06:12;14.32;;;7.85;;
36575;SDS011;45700;50.930;5.168;2023-08-12T04:10:13;22.30;;;9.07;;
36575;SDS011;45700;50.930;5.168;2023-08-12T04:14:14;22.55;;;8.35;;
36575;SDS011;45700;50.930;5.168;2023-08-12T04:18:16;18.30;;;7.90;;
36575;SDS011;45700;50.930;5.168;2023-08-12T04:22:18;17.90;;;8.60;;
36575;SDS011;45700;50.930;5.168;2023-08-12T04:26:19;18.10;;;8.65;;
36575;SDS011;45700;50.930;5.168;2023-08-12T04:30:20;17.67;;;8.68;;
36575;SDS011;45700;50.930;5.168;2023-08-12T04:34:21;24.95;;;8.68;;
36575;SDS011;45700;50.930;5.168;2023-08-12T04:38:22;23.85;;;10.45;;
36575;SDS011;45700;50.930;5.168;2023-08-12T04:42:23;16.70;;;9.30;;
36575;SDS011;45700;50.930;5.168;2023-08-12T04:46:24;19.42;;;9.40;;
36575;SDS011;45700;50.930;5.168;2023-08-12T04:50:25;21.48;;;9.77;;
36575;SDS011;45700;50.930;5.168;2023-08-12T04:54:26;21.50;;;10.07;;
36575;SDS011;45700;50.930;5.168;2023-08-12T04:58:27;20.45;;;10.25;;
36575;SDS011;45700;50.930;5.168;2023-08-12T05:02:28;23.45;;;8.88;;
36575;SDS011;45700;50.930;5.168;2023-08-12T05:06:29;18.77;;;8.65;;
36575;SDS011;45700;50.930;5.168;2023-08-12T05:10:30;17.40;;;7.75;;
36575;SDS011;45700;50.930;5.168;2023-08-12T05:14:31;18.02;;;8.13;;
36575;SDS011;45700;50.930;5.168;2023-08-12T05:18:32;17.27;;;7.78;;
36575;SDS011;45700;50.930;5.168;2023-08-12T05:22:33;14.13;;;6.30;;
36575;SDS011;45700;50.930;5.168;2023-08-12T05:26:34;10.50;;;5.75;;
36575;SDS011;45700;50.930;5.168;2023-08-12T05:30:35;11.02;;;6.60;;
36575;SDS011;45700;50.930;5.168;2023-08-12T05:34:37;11.30;;;5.90;;
36575;SDS011;45700;50.930;5.168;2023-08-12T05:38:38;11.30;;;6.10;;
36575;SDS011;45700;50.930;5.168;2023-08-12T05:42:39;8.80;;;5.20;;
36575;SDS011;45700;50.930;5.168;2023-08-12T05:46:40;10.60;;;4.88;;
36575;SDS011;45700;50.930;5.168;2023-08-12T05:50:41;8.60;;;4.93;;
36575;SDS011;45700;50.930;5.168;2023-08-12T05:54:42;9.43;;;4.97;;
36575;SDS011;45700;50.930;5.168;2023-08-12T05:58:43;9.57;;;5.22;;
36575;SDS011;45700;50.930;5.168;2023-08-12T06:02:44;10.65;;;5.05;;
36575;SDS011;45700;50.930;5.168;2023-08-12T06:06:45;10.90;;;5.15;;
36575;SDS011;45700;50.930;5.168;2023-08-12T06:10:46;7.28;;;4.82;;
36575;SDS011;45700;50.930;5.168;2023-08-12T06:14:47;7.72;;;4.80;;
36575;SDS011;45700;50.930;5.168;2023-08-12T06:18:48;12.10;;;5.47;;
36575;SDS011;45700;50.930;5.168;2023-08-12T06:22:50;8.20;;;4.97;;
36575;SDS011;45700;50.930;5.168;2023-08-12T06:26:51;12.10;;;5.13;;
36575;SDS011;45700;50.930;5.168;2023-08-12T06:30:52;7.55;;;4.40;;
36575;SDS011;45700;50.930;5.168;2023-08-12T06:34:53;8.82;;;4.70;;
36575;SDS011;45700;50.930;5.168;2023-08-12T06:38:54;8.93;;;4.30;;
36575;SDS011;45700;50.930;5.168;2023-08-12T06:42:55;5.90;;;3.72;;
36575;SDS011;45700;50.930;5.168;2023-08-12T06:46:56;5.93;;;3.33;;
36575;SDS011;45700;50.930;5.168;2023-08-12T06:50:57;5.20;;;3.55;;
36575;SDS011;45700;50.930;5.168;2023-08-12T06:54:58;5.43;;;3.00;;
36575;SDS011;45700;50.930;5.168;2023-08-12T06:58:59;5.22;;;3.08;;
36575;SDS011;45700;50.930;5.168;2023-08-12T07:03:00;4.90;;;2.90;;
36575;SDS011;45700;50.930;5.168;2023-08-12T07:07:01;4.22;;;2.28;;
36575;SDS011;45700;50.930;5.168;2023-08-12T07:11:02;3.40;;;2.15;;
36575;SDS011;45700;50.930;5.168;2023-08-12T07:15:04;4.05;;;2.25;;
36575;SDS011;45700;50.930;5.168;2023-08-12T07:19:05;2.47;;;1.65;;
36575;SDS011;45700;50.930;5.168;2023-08-12T07:23:06;2.13;;;1.40;;
36575;SDS011;45700;50.930;5.168;2023-08-12T07:27:07;3.20;;;1.52;;
36575;SDS011;45700;50.930;5.168;2023-08-12T07:31:08;1.65;;;1.10;;
36575;SDS011;45700;50.930;5.168;2023-08-12T07:35:09;1.48;;;0.85;;
36575;SDS011;45700;50.930;5.168;2023-08-12T07:39:11;0.93;;;0.80;;
36575;SDS011;45700;50.930;5.168;2023-08-12T07:43:12;1.13;;;0.73;;
36575;SDS011;45700;50.930;5.168;2023-08-12T07:47:13;0.60;;;0.60;;
36575;SDS011;45700;50.930;5.168;2023-08-12T07:51:15;0.52;;;0.38;;
36575;SDS011;45700;50.930;5.168;2023-08-12T07:55:16;0.47;;;0.47;;
36575;SDS011;45700;50.930;5.168;2023-08-12T07:59:17;1.30;;;0.47;;
36575;SDS011;45700;50.930;5.168;2023-08-12T08:03:18;2.20;;;0.43;;
36575;SDS011;45700;50.930;5.168;2023-08-12T08:07:19;0.45;;;0.40;;
36575;SDS011;45700;50.930;5.168;2023-08-12T08:11:20;0.65;;;0.30;;
36575;SDS011;45700;50.930;5.168;2023-08-12T08:15:21;0.60;;;0.32;;
36575;SDS011;45700;50.930;5.168;2023-08-12T08:19:22;0.20;;;0.20;;
36575;SDS011;45700;50.930;5.168;2023-08-12T08:23:23;1.75;;;0.20;;
36575;SDS011;45700;50.930;5.168;2023-08-12T08:27:24;0.43;;;0.30;;
36575;SDS011;45700;50.930;5.168;2023-08-12T08:31:25;1.88;;;0.40;;
36575;SDS011;45700;50.930;5.168;2023-08-12T08:35:26;0.47;;;0.38;;
36575;SDS011;45700;50.930;5.168;2023-08-12T08:39:27;0.70;;;0.22;;
36575;SDS011;45700;50.930;5.168;2023-08-12T08:43:28;1.42;;;0.35;;
36575;SDS011;45700;50.930;5.168;2023-08-12T08:47:29;0.50;;;0.40;;
36575;SDS011;45700;50.930;5.168;2023-08-12T08:51:30;0.25;;;0.20;;
36575;SDS011;45700;50.930;5.168;2023-08-12T08:55:32;1.65;;;0.20;;
36575;SDS011;45700;50.930;5.168;2023-08-12T08:59:33;1.48;;;0.43;;
36575;SDS011;45700;50.930;5.168;2023-08-12T09:03:35;0.45;;;0.43;;
36575;SDS011;45700;50.930;5.168;2023-08-12T09:07:36;3.50;;;0.52;;
36575;SDS011;45700;50.930;5.168;2023-08-12T09:11:38;0.80;;;0.50;;
36575;SDS011;45700;50.930;5.168;2023-08-12T09:15:40;0.73;;;0.52;;
36575;SDS011;45700;50.930;5.168;2023-08-12T09:19:41;0.63;;;0.50;;
36575;SDS011;45700;50.930;5.168;2023-08-12T09:23:42;1.52;;;0.88;;
36575;SDS011;45700;50.930;5.168;2023-08-12T09:27:44;1.58;;;0.50;;
36575;SDS011;45700;50.930;5.168;2023-08-12T09:31:45;0.57;;;0.52;;
36575;SDS011;45700;50.930;5.168;2023-08-12T09:35:46;0.70;;;0.55;;
36575;SDS011;45700;50.930;5.168;2023-08-12T09:39:48;0.82;;;0.50;;
36575;SDS011;45700;50.930;5.168;2023-08-12T09:43:50;0.50;;;0.30;;
36575;SDS011;45700;50.930;5.168;2023-08-12T09:47:52;0.40;;;0.40;;
36575;SDS011;45700;50.930;5.168;2023-08-12T09:51:53;0.45;;;0.30;;
36575;SDS011;45700;50.930;5.168;2023-08-12T09:55:54;1.20;;;0.63;;
36575;SDS011;45700;50.930;5.168;2023-08-12T09:59:58;0.57;;;0.40;;
36575;SDS011;45700;50.930;5.168;2023-08-12T10:04:00;0.60;;;0.60;;
36575;SDS011;45700;50.930;5.168;2023-08-12T10:08:02;1.10;;;0.95;;
36575;SDS011;45700;50.930;5.168;2023-08-12T10:12:04;4.03;;;0.82;;
36575;SDS011;45700;50.930;5.168;2023-08-12T10:16:06;1.05;;;0.98;;
36575;SDS011;45700;50.930;5.168;2023-08-12T10:20:20;1.00;;;0.88;;
36575;SDS011;45700;50.930;5.168;2023-08-12T10:24:21;1.20;;;1.10;;
36575;SDS011;45700;50.930;5.168;2023-08-12T10:28:23;1.58;;;1.35;;
36575;SDS011;45700;50.930;5.168;2023-08-12T10:32:24;1.92;;;1.15;;
36575;SDS011;45700;50.930;5.168;2023-08-12T10:36:27;3.47;;;1.70;;
36575;SDS011;45700;50.930;5.168;2023-08-12T10:40:28;4.18;;;1.45;;
36575;SDS011;45700;50.930;5.168;2023-08-12T10:44:49;2.47;;;1.55;;
36575;SDS011;45700;50.930;5.168;2023-08-12T10:52:59;3.42;;;1.58;;
36575;SDS011;45700;50.930;5.168;2023-08-12T10:57:34;4.10;;;1.13;;
36575;SDS011;45700;50.930;5.168;2023-08-12T11:01:38;1.67;;;1.23;;
36575;SDS011;45700;50.930;5.168;2023-08-12T11:05:39;2.28;;;1.40;;
36575;SDS011;45700;50.930;5.168;2023-08-12T11:09:40;2.05;;;1.40;;
36575;SDS011;45700;50.930;5.168;2023-08-12T11:13:46;5.38;;;2.00;;
36575;SDS011;45700;50.930;5.168;2023-08-12T11:17:47;1.85;;;1.27;;
36575;SDS011;45700;50.930;5.168;2023-08-12T11:21:48;2.58;;;1.38;;
36575;SDS011;45700;50.930;5.168;2023-08-12T11:25:49;2.95;;;0.82;;
36575;SDS011;45700;50.930;5.168;2023-08-12T11:29:51;1.55;;;0.80;;
36575;SDS011;45700;50.930;5.168;2023-08-12T11:33:52;1.77;;;0.57;;
36575;SDS011;45700;50.930;5.168;2023-08-12T11:37:54;3.33;;;0.95;;
36575;SDS011;45700;50.930;5.168;2023-08-12T11:41:56;2.47;;;1.27;;
36575;SDS011;45700;50.930;5.168;2023-08-12T11:45:58;2.00;;;0.65;;
36575;SDS011;45700;50.930;5.168;2023-08-12T11:50:01;1.95;;;0.80;;
36575;SDS011;45700;50.930;5.168;2023-08-12T11:54:03;1.98;;;0.70;;
36575;SDS011;45700;50.930;5.168;2023-08-12T11:58:04;2.47;;;0.77;;
36575;SDS011;45700;50.930;5.168;2023-08-12T12:02:06;3.45;;;0.95;;
36575;SDS011;45700;50.930;5.168;2023-08-12T12:06:07;3.15;;;0.80;;
36575;SDS011;45700;50.930;5.168;2023-08-12T12:10:11;6.07;;;0.95;;
36575;SDS011;45700;50.930;5.168;2023-08-12T12:14:13;1.90;;;1.10;;
36575;SDS011;45700;50.930;5.168;2023-08-12T12:18:14;3.88;;;1.10;;
36575;SDS011;45700;50.930;5.168;2023-08-12T12:22:15;3.67;;;0.70;;
36575;SDS011;45700;50.930;5.168;2023-08-12T12:26:16;3.85;;;1.02;;
36575;SDS011;45700;50.930;5.168;2023-08-12T12:30:17;2.92;;;0.90;;
36575;SDS011;45700;50.930;5.168;2023-08-12T12:34:19;2.47;;;1.05;;
36575;SDS011;45700;50.930;5.168;2023-08-12T12:38:20;1.00;;;0.80;;
36575;SDS011;45700;50.930;5.168;2023-08-12T12:42:21;3.22;;;0.98;;
36575;SDS011;45700;50.930;5.168;2023-08-12T12:46:22;3.15;;;0.88;;
36575;SDS011;45700;50.930;5.168;2023-08-12T12:50:23;2.03;;;0.70;;
36575;SDS011;45700;50.930;5.168;2023-08-12T12:54:24;5.15;;;0.80;;
36575;SDS011;45700;50.930;5.168;2023-08-12T12:58:25;1.45;;;0.70;;
36575;SDS011;45700;50.930;5.168;2023-08-12T13:02:26;6.03;;;0.90;;
36575;SDS011;45700;50.930;5.168;2023-08-12T13:06:27;1.05;;;0.57;;
36575;SDS011;45700;50.930;5.168;2023-08-12T13:10:29;1.33;;;0.60;;
36575;SDS011;45700;50.930;5.168;2023-08-12T13:14:30;3.22;;;0.90;;
36575;SDS011;45700;50.930;5.168;2023-08-12T13:18:30;3.05;;;0.85;;
36575;SDS011;45700;50.930;5.168;2023-08-12T13:22:32;3.13;;;0.70;;
36575;SDS011;45700;50.930;5.168;2023-08-12T13:26:33;4.47;;;1.02;;
36575;SDS011;45700;50.930;5.168;2023-08-12T13:30:34;1.00;;;0.65;;
36575;SDS011;45700;50.930;5.168;2023-08-12T13:34:35;4.07;;;0.80;;
36575;SDS011;45700;50.930;5.168;2023-08-12T13:38:36;1.50;;;0.52;;
36575;SDS011;45700;50.930;5.168;2023-08-12T13:42:37;2.75;;;0.50;;
36575;SDS011;45700;50.930;5.168;2023-08-12T13:46:38;3.17;;;0.80;;
36575;SDS011;45700;50.930;5.168;2023-08-12T13:50:39;4.70;;;0.75;;
36575;SDS011;45700;50.930;5.168;2023-08-12T13:54:40;1.90;;;0.60;;
36575;SDS011;45700;50.930;5.168;2023-08-12T13:58:41;2.30;;;1.05;;
36575;SDS011;45700;50.930;5.168;2023-08-12T14:02:42;3.22;;;0.77;;
36575;SDS011;45700;50.930;5.168;2023-08-12T14:06:43;1.13;;;0.60;;
36575;SDS011;45700;50.930;5.168;2023-08-12T14:10:45;3.45;;;1.10;;
36575;SDS011;45700;50.930;5.168;2023-08-12T14:14:47;4.07;;;1.10;;
36575;SDS011;45700;50.930;5.168;2023-08-12T14:18:48;2.03;;;0.90;;
36575;SDS011;45700;50.930;5.168;2023-08-12T14:22:49;2.53;;;1.25;;
36575;SDS011;45700;50.930;5.168;2023-08-12T14:26:50;1.27;;;1.00;;
36575;SDS011;45700;50.930;5.168;2023-08-12T14:30:53;7.20;;;1.20;;
36575;SDS011;45700;50.930;5.168;2023-08-12T14:34:54;3.33;;;0.95;;
36575;SDS011;45700;50.930;5.168;2023-08-12T14:38:55;5.97;;;0.98;;
36575;SDS011;45700;50.930;5.168;2023-08-12T14:42:56;1.20;;;0.80;;
36575;SDS011;45700;50.930;5.168;2023-08-12T14:46:57;1.23;;;0.80;;
36575;SDS011;45700;50.930;5.168;2023-08-12T14:50:58;0.82;;;0.70;;
36575;SDS011;45700;50.930;5.168;2023-08-12T14:54:59;1.77;;;0.73;;
36575;SDS011;45700;50.930;5.168;2023-08-12T14:59:00;2.50;;;0.77;;
36575;SDS011;45700;50.930;5.168;2023-08-12T15:03:01;4.40;;;0.95;;
36575;SDS011;45700;50.930;5.168;2023-08-12T15:07:03;1.23;;;0.68;;
36575;SDS011;45700;50.930;5.168;2023-08-12T15:11:04;3.15;;;0.82;;
36575;SDS011;45700;50.930;5.168;2023-08-12T15:15:05;1.58;;;0.77;;
36575;SDS011;45700;50.930;5.168;2023-08-12T15:19:06;5.63;;;1.13;;
36575;SDS011;45700;50.930;5.168;2023-08-12T15:23:08;2.75;;;0.70;;
36575;SDS011;45700;50.930;5.168;2023-08-12T15:27:09;1.17;;;0.65;;
36575;SDS011;45700;50.930;5.168;2023-08-12T15:31:11;2.45;;;0.70;;
36575;SDS011;45700;50.930;5.168;2023-08-12T15:35:12;1.20;;;0.60;;
36575;SDS011;45700;50.930;5.168;2023-08-12T15:39:13;5.78;;;1.23;;
36575;SDS011;45700;50.930;5.168;2023-08-12T15:43:15;0.95;;;0.68;;
36575;SDS011;45700;50.930;5.168;2023-08-12T15:47:16;3.60;;;1.55;;
36575;SDS011;45700;50.930;5.168;2023-08-12T15:51:16;3.92;;;1.40;;
36575;SDS011;45700;50.930;5.168;2023-08-12T15:55:17;1.33;;;0.63;;
36575;SDS011;45700;50.930;5.168;2023-08-12T15:59:18;1.40;;;0.70;;
36575;SDS011;45700;50.930;5.168;2023-08-12T16:03:20;3.50;;;0.70;;
36575;SDS011;45700;50.930;5.168;2023-08-12T16:07:21;1.70;;;0.75;;
36575;SDS011;45700;50.930;5.168;2023-08-12T16:11:22;5.57;;;0.60;;
36575;SDS011;45700;50.930;5.168;2023-08-12T16:15:23;1.70;;;0.75;;
36575;SDS011;45700;50.930;5.168;2023-08-12T16:19:24;3.45;;;0.68;;
36575;SDS011;45700;50.930;5.168;2023-08-12T16:23:25;1.33;;;0.70;;
36575;SDS011;45700;50.930;5.168;2023-08-12T16:27:27;5.43;;;1.52;;
36575;SDS011;45700;50.930;5.168;2023-08-12T16:31:29;4.03;;;0.60;;
36575;SDS011;45700;50.930;5.168;2023-08-12T16:35:31;5.93;;;1.20;;
36575;SDS011;45700;50.930;5.168;2023-08-12T16:39:32;3.03;;;0.93;;
36575;SDS011;45700;50.930;5.168;2023-08-12T16:43:33;1.88;;;0.82;;
36575;SDS011;45700;50.930;5.168;2023-08-12T16:47:34;3.78;;;0.75;;
36575;SDS011;45700;50.930;5.168;2023-08-12T16:51:35;2.25;;;0.70;;
36575;SDS011;45700;50.930;5.168;2023-08-12T16:55:36;1.55;;;0.70;;
36575;SDS011;45700;50.930;5.168;2023-08-12T16:59:37;6.32;;;0.90;;
36575;SDS011;45700;50.930;5.168;2023-08-12T17:03:38;4.05;;;1.00;;
36575;SDS011;45700;50.930;5.168;2023-08-12T17:07:39;2.58;;;0.80;;
36575;SDS011;45700;50.930;5.168;2023-08-12T17:11:40;4.43;;;0.90;;
36575;SDS011;45700;50.930;5.168;2023-08-12T17:15:41;3.88;;;0.95;;
36575;SDS011;45700;50.930;5.168;2023-08-12T17:19:42;4.47;;;1.10;;
36575;SDS011;45700;50.930;5.168;2023-08-12T17:23:43;3.72;;;1.02;;
36575;SDS011;45700;50.930;5.168;2023-08-12T17:27:44;4.53;;;1.10;;
36575;SDS011;45700;50.930;5.168;2023-08-12T17:31:45;3.38;;;1.10;;
36575;SDS011;45700;50.930;5.168;2023-08-12T17:35:46;3.75;;;1.10;;
36575;SDS011;45700;50.930;5.168;2023-08-12T17:39:48;2.25;;;0.85;;
36575;SDS011;45700;50.930;5.168;2023-08-12T17:43:49;4.95;;;1.25;;
36575;SDS011;45700;50.930;5.168;2023-08-12T17:47:56;2.15;;;0.90;;
36575;SDS011;45700;50.930;5.168;2023-08-12T17:51:57;2.30;;;0.90;;
36575;SDS011;45700;50.930;5.168;2023-08-12T17:55:58;5.30;;;1.52;;
36575;SDS011;45700;50.930;5.168;2023-08-12T17:59:59;2.40;;;1.00;;
36575;SDS011;45700;50.930;5.168;2023-08-12T18:04:00;3.53;;;1.30;;
36575;SDS011;45700;50.930;5.168;2023-08-12T18:08:01;5.03;;;0.98;;
36575;SDS011;45700;50.930;5.168;2023-08-12T18:12:02;4.13;;;1.17;;
36575;SDS011;45700;50.930;5.168;2023-08-12T18:16:03;3.15;;;0.98;;
36575;SDS011;45700;50.930;5.168;2023-08-12T18:20:04;2.80;;;0.98;;
36575;SDS011;45700;50.930;5.168;2023-08-12T18:24:05;2.60;;;0.98;;
36575;SDS011;45700;50.930;5.168;2023-08-12T18:28:06;3.88;;;1.20;;
36575;SDS011;45700;50.930;5.168;2023-08-12T18:32:07;6.13;;;1.23;;
36575;SDS011;45700;50.930;5.168;2023-08-12T18:36:09;5.95;;;1.27;;
36575;SDS011;45700;50.930;5.168;2023-08-12T18:40:10;4.20;;;1.20;;
36575;SDS011;45700;50.930;5.168;2023-08-12T18:44:12;2.10;;;1.00;;
36575;SDS011;45700;50.930;5.168;2023-08-12T18:48:13;2.65;;;1.13;;
36575;SDS011;45700;50.930;5.168;2023-08-12T18:52:14;4.20;;;1.35;;
36575;SDS011;45700;50.930;5.168;2023-08-12T18:56:16;3.28;;;1.30;;
36575;SDS011;45700;50.930;5.168;2023-08-12T19:00:17;7.57;;;1.52;;
36575;SDS011;45700;50.930;5.168;2023-08-12T19:04:19;4.50;;;1.20;;
36575;SDS011;45700;50.930;5.168;2023-08-12T19:08:20;4.20;;;1.30;;
36575;SDS011;45700;50.930;5.168;2023-08-12T19:12:21;2.85;;;1.25;;
36575;SDS011;45700;50.930;5.168;2023-08-12T19:16:22;2.90;;;1.23;;
36575;SDS011;45700;50.930;5.168;2023-08-12T19:20:23;3.28;;;0.85;;
36575;SDS011;45700;50.930;5.168;2023-08-12T19:24:24;2.28;;;0.90;;
36575;SDS011;45700;50.930;5.168;2023-08-12T19:28:25;2.45;;;1.42;;
36575;SDS011;45700;50.930;5.168;2023-08-12T19:32:26;7.28;;;1.20;;
36575;SDS011;45700;50.930;5.168;2023-08-12T19:36:27;2.58;;;1.00;;
36575;SDS011;45700;50.930;5.168;2023-08-12T19:40:28;3.30;;;1.00;;
36575;SDS011;45700;50.930;5.168;2023-08-12T19:44:29;3.22;;;1.20;;
36575;SDS011;45700;50.930;5.168;2023-08-12T19:48:30;3.45;;;1.30;;
36575;SDS011;45700;50.930;5.168;2023-08-12T19:52:31;5.38;;;1.38;;
36575;SDS011;45700;50.930;5.168;2023-08-12T19:56:32;5.07;;;1.50;;
36575;SDS011;45700;50.930;5.168;2023-08-12T20:00:33;4.65;;;1.50;;
36575;SDS011;45700;50.930;5.168;2023-08-12T20:04:34;5.63;;;1.77;;
36575;SDS011;45700;50.930;5.168;2023-08-12T20:08:35;4.43;;;2.03;;
36575;SDS011;45700;50.930;5.168;2023-08-12T20:12:36;6.68;;;2.33;;
36575;SDS011;45700;50.930;5.168;2023-08-12T20:16:37;4.63;;;1.17;;
36575;SDS011;45700;50.930;5.168;2023-08-12T20:20:38;5.35;;;1.60;;
36575;SDS011;45700;50.930;5.168;2023-08-12T20:24:40;5.63;;;1.40;;
36575;SDS011;45700;50.930;5.168;2023-08-12T20:28:41;4.13;;;1.40;;
36575;SDS011;45700;50.930;5.168;2023-08-12T20:32:42;4.35;;;1.50;;
36575;SDS011;45700;50.930;5.168;2023-08-12T20:36:43;4.05;;;1.30;;
36575;SDS011;45700;50.930;5.168;2023-08-12T20:40:45;4.05;;;1.33;;
36575;SDS011;45700;50.930;5.168;2023-08-12T20:44:46;5.70;;;1.58;;
36575;SDS011;45700;50.930;5.168;2023-08-12T20:48:47;5.65;;;1.27;;
36575;SDS011;45700;50.930;5.168;2023-08-12T20:52:48;6.35;;;1.42;;
36575;SDS011;45700;50.930;5.168;2023-08-12T20:56:49;2.67;;;1.30;;
36575;SDS011;45700;50.930;5.168;2023-08-12T21:00:50;5.90;;;1.30;;
36575;SDS011;45700;50.930;5.168;2023-08-12T21:04:51;5.53;;;1.67;;
36575;SDS011;45700;50.930;5.168;2023-08-12T21:08:52;6.38;;;1.30;;
36575;SDS011;45700;50.930;5.168;2023-08-12T21:12:53;8.88;;;1.67;;
36575;SDS011;45700;50.930;5.168;2023-08-12T21:16:54;3.90;;;1.40;;
36575;SDS011;45700;50.930;5.168;2023-08-12T21:20:55;3.75;;;1.65;;
36575;SDS011;45700;50.930;5.168;2023-08-12T21:24:56;3.30;;;1.30;;
36575;SDS011;45700;50.930;5.168;2023-08-12T21:28:57;6.25;;;1.60;;
36575;SDS011;45700;50.930;5.168;2023-08-12T21:32:58;4.20;;;1.35;;
36575;SDS011;45700;50.930;5.168;2023-08-12T21:36:59;5.78;;;1.48;;
36575;SDS011;45700;50.930;5.168;2023-08-12T21:41:00;7.43;;;1.67;;
36575;SDS011;45700;50.930;5.168;2023-08-12T21:45:01;2.88;;;1.00;;
36575;SDS011;45700;50.930;5.168;2023-08-12T21:49:02;5.68;;;1.30;;
36575;SDS011;45700;50.930;5.168;2023-08-12T21:53:03;7.38;;;2.10;;
36575;SDS011;45700;50.930;5.168;2023-08-12T21:57:04;5.75;;;1.60;;
36575;SDS011;45700;50.930;5.168;2023-08-12T22:01:05;5.30;;;1.58;;
36575;SDS011;45700;50.930;5.168;2023-08-12T22:05:06;4.00;;;1.42;;
36575;SDS011;45700;50.930;5.168;2023-08-12T22:09:07;3.92;;;1.20;;
36575;SDS011;45700;50.930;5.168;2023-08-12T22:13:08;4.65;;;1.40;;
36575;SDS011;45700;50.930;5.168;2023-08-12T22:17:09;11.15;;;1.35;;
36575;SDS011;45700;50.930;5.168;2023-08-12T22:21:10;6.75;;;1.15;;
36575;SDS011;45700;50.930;5.168;2023-08-12T22:25:11;4.68;;;1.50;;
36575;SDS011;45700;50.930;5.168;2023-08-12T22:29:12;9.98;;;2.22;;
36575;SDS011;45700;50.930;5.168;2023-08-12T22:33:14;4.53;;;0.90;;
36575;SDS011;45700;50.930;5.168;2023-08-12T22:37:15;6.85;;;2.83;;
36575;SDS011;45700;50.930;5.168;2023-08-12T22:41:16;6.55;;;1.20;;
36575;SDS011;45700;50.930;5.168;2023-08-12T22:45:17;5.25;;;1.20;;
36575;SDS011;45700;50.930;5.168;2023-08-12T22:49:18;6.38;;;1.08;;
36575;SDS011;45700;50.930;5.168;2023-08-12T22:53:19;3.38;;;1.23;;
36575;SDS011;45700;50.930;5.168;2023-08-12T22:57:21;2.25;;;1.17;;
36575;SDS011;45700;50.930;5.168;2023-08-12T23:01:22;6.18;;;1.20;;
36575;SDS011;45700;50.930;5.168;2023-08-12T23:05:24;5.47;;;1.55;;
36575;SDS011;45700;50.930;5.168;2023-08-12T23:09:25;6.63;;;1.38;;
36575;SDS011;45700;50.930;5.168;2023-08-12T23:13:26;8.40;;;1.35;;
36575;SDS011;45700;50.930;5.168;2023-08-12T23:17:27;4.50;;;1.60;;
36575;SDS011;45700;50.930;5.168;2023-08-12T23:21:28;7.07;;;1.63;;
36575;SDS011;45700;50.930;5.168;2023-08-12T23:25:29;8.00;;;1.60;;
36575;SDS011;45700;50.930;5.168;2023-08-12T23:29:30;9.43;;;2.00;;
36575;SDS011;45700;50.930;5.168;2023-08-12T23:33:30;7.32;;;1.55;;
36575;SDS011;45700;50.930;5.168;2023-08-12T23:37:31;4.40;;;1.52;;
36575;SDS011;45700;50.930;5.168;2023-08-12T23:41:32;2.58;;;1.20;;
36575;SDS011;45700;50.930;5.168;2023-08-12T23:45:37;4.55;;;1.55;;
36575;SDS011;45700;50.930;5.168;2023-08-12T23:49:38;6.78;;;1.55;;
36575;SDS011;45700;50.930;5.168;2023-08-12T23:53:40;4.65;;;1.85;;
36575;SDS011;45700;50.930;5.168;2023-08-12T23:57:41;10.25;;;1.70;;
